Urania — PAFG — position and weather

sailwx.info

Track history (hours):
 
Tides and Currents Weather Stations Pressure Air Temp Water Temp Dewpoint Dewpoint Depression Visibility Wind Speed Wind Dir Waves Ship Positions

Urania (Netherlands)

Flagship of the Royal Netherlands Naval College.

Last reported at 2020-Jul-09 02:57 UTC. Time now 2020-Jul-09 05:14 UTC.
Position N 53°01' E 005°22'.

Length 27 m; draft 2.7 m.

Type: Sailing vessel. MMSI: 245804000.

Date/timePositionNaut miles runAvg speedWind from/ knotsBaromVisibWave heightAir tempDewpointWater temp
2020-Jul-09 02:57N 53°01' E 005°22'0 0.0
2020-Jul-08 21:51N 53°01' E 005°22'0 0.0
2020-Jul-08 20:27N 53°01' E 005°22'0 0.0
2020-Jul-08 17:27N 53°01' E 005°22'0 0.0
2020-Jul-08 16:57N 53°01' E 005°22'0 0.0
2020-Jul-08 15:27N 53°01' E 005°22'0 0.0
2020-Jul-08 14:01N 53°01' E 005°22'1 2.1
2020-Jul-08 13:31N 53°00' E 005°21'1 1.3
2020-Jul-08 13:01N 53°01' E 005°21'0 0.4
2020-Jul-08 12:31N 53°01' E 005°21'4 2.7
2020-Jul-08 11:00N 53°05' E 005°20'21 2.6
2020-Jul-08 02:46N 52°58' E 004°47'0 0.0
2020-Jul-07 20:31N 52°58' E 004°47'12 5.6
2020-Jul-07 18:23N 52°48' E 004°37'16 6.8
2020-Jul-07 16:00N 52°32' E 004°33'4 4.5
2020-Jul-07 15:00N 52°28' E 004°35'3 3.5
2020-Jul-07 14:00N 52°27' E 004°41'6 6.2
2020-Jul-07 13:00N 52°25' E 004°51'5 3.6
2020-Jul-07 11:31N 52°23' E 004°58'2 4.6
2020-Jul-07 11:00N 52°23' E 005°02'18 5.2
2020-Jul-07 07:30N 52°39' E 005°15'3 1.6
2020-Jul-07 05:26N 52°42' E 005°18'0 0.0
2020-Jul-07 04:56N 52°42' E 005°18'0 0.0
2020-Jul-07 03:26N 52°42' E 005°18'0 0.0
2020-Jul-07 02:56N 52°42' E 005°18'0 0.0
2020-Jul-06 23:56N 52°42' E 005°18'0 0.0
2020-Jul-06 22:26N 52°42' E 005°18'0 0.0
2020-Jul-06 19:00N 52°42' E 005°18'0 0.0
2020-Jul-06 18:30N 52°42' E 005°18'3 3.2
2020-Jul-06 17:31N 52°44' E 005°22'3 5.7
2020-Jul-06 17:01N 52°46' E 005°21'21 4.2
2020-Jul-06 12:01N 52°59' E 004°54'  
2020-Jul-03 08:31N 52°58' E 004°47'0 0.3
2020-Jul-03 08:30N 52°58' E 004°47'10 4.9
2020-Jul-03 06:30N 52°56' E 005°03'5 2.0
2020-Jul-03 03:56N 52°52' E 005°08'0 0.0
2020-Jul-03 02:59N 52°52' E 005°08'0 0.0
2020-Jul-03 02:29N 52°52' E 005°08'0 0.0
2020-Jul-02 20:28N 52°52' E 005°08'0 0.0
2020-Jul-02 19:28N 52°52' E 005°08'0 0.0
2020-Jul-02 18:28N 52°52' E 005°08'1 0.4
2020-Jul-02 16:01N 52°51' E 005°09'2 1.5
2020-Jul-02 14:31N 52°51' E 005°13'4 1.5
2020-Jul-02 11:30N 52°55' E 005°16'2 3.3
2020-Jul-02 11:00N 52°55' E 005°19'2 4.1
2020-Jul-02 10:31N 52°57' E 005°20'4 4.2
2020-Jul-02 09:31N 53°01' E 005°20'1 2.8
2020-Jul-02 09:01N 53°02' E 005°21'9 3.7
2020-Jul-02 06:27N 53°11' E 005°25'0 0.0
2020-Jul-02 03:57N 53°11' E 005°25'0 0.0
2020-Jul-02 03:27N 53°11' E 005°25'0 0.0
2020-Jul-02 02:27N 53°11' E 005°25'0 0.0
2020-Jul-02 01:27N 53°11' E 005°25'0 0.0
2020-Jul-01 23:30N 53°11' E 005°25'0 0.0
2020-Jul-01 18:26N 53°11' E 005°25'7 2.8
2020-Jul-01 16:00N 53°05' E 005°19'18 6.8
2020-Jul-01 13:25N 53°01' E 004°51'35 4.4
2020-Jul-01 05:29N 52°28' E 004°34'0 0.0
2020-Jul-01 03:59N 52°28' E 004°34'0 0.0
2020-Jul-01 02:29N 52°28' E 004°34'0 0.0
2020-Jun-30 23:59N 52°28' E 004°34'0 0.0
2020-Jun-30 21:29N 52°28' E 004°34'0 0.0
2020-Jun-30 18:29N 52°28' E 004°34'0 0.0
2020-Jun-30 17:56N 52°28' E 004°34'0 0.0
2020-Jun-30 17:29N 52°28' E 004°34'1 1.2
2020-Jun-30 16:30N 52°28' E 004°36'5 5.0
2020-Jun-30 15:30N 52°26' E 004°43'5 5.2
2020-Jun-30 14:30N 52°25' E 004°52'10 3.8
2020-Jun-30 12:00N 52°25' E 005°07'16 3.6
2020-Jun-30 07:30N 52°40' E 005°15'2 2.4
2020-Jun-30 06:29N 52°42' E 005°18'0 0.0
2020-Jun-30 03:28N 52°42' E 005°18'0 0.0
2020-Jun-30 02:28N 52°42' E 005°18'0 0.0
2020-Jun-30 00:29N 52°42' E 005°18'0 0.0
2020-Jun-29 22:58N 52°42' E 005°18'0 0.0
2020-Jun-29 22:29N 52°42' E 005°18'0 0.0
2020-Jun-29 21:28N 52°42' E 005°18'4 0.8
2020-Jun-29 16:30N 52°45' E 005°20'1 1.7
2020-Jun-29 16:00N 52°45' E 005°21'2 1.0
2020-Jun-29 14:00N 52°47' E 005°20'4 8.5
2020-Jun-29 13:30N 52°49' E 005°14'  
Track history (hours):
 
Tides and Currents Weather Stations Pressure Air Temp Water Temp Dewpoint Dewpoint Depression Visibility Wind Speed Wind Dir Waves Ship Positions

Urania (Netherlands)

Flagship of the Royal Netherlands Naval College.

Last reported at 2020-Jul-09 02:57 UTC. Time now 2020-Jul-09 05:14 UTC.
Position N 53°01' E 005°22'.

Length 27 m; draft 2.7 m.

Type: Sailing vessel. MMSI: 245804000.

Date/timePositionNaut miles runAvg speedWind from/ knotsBaromVisibWave heightAir tempDewpointWater temp
2020-Jul-09 02:57N 53°01' E 005°22'0 0.0
2020-Jul-08 21:51N 53°01' E 005°22'0 0.0
2020-Jul-08 20:27N 53°01' E 005°22'0 0.0
2020-Jul-08 17:27N 53°01' E 005°22'0 0.0
2020-Jul-08 16:57N 53°01' E 005°22'0 0.0
2020-Jul-08 15:27N 53°01' E 005°22'0 0.0
2020-Jul-08 14:01N 53°01' E 005°22'1 2.1
2020-Jul-08 13:31N 53°00' E 005°21'1 1.3
2020-Jul-08 13:01N 53°01' E 005°21'0 0.4
2020-Jul-08 12:31N 53°01' E 005°21'4 2.7
2020-Jul-08 11:00N 53°05' E 005°20'21 2.6
2020-Jul-08 02:46N 52°58' E 004°47'0 0.0
2020-Jul-07 20:31N 52°58' E 004°47'12 5.6
2020-Jul-07 18:23N 52°48' E 004°37'16 6.8
2020-Jul-07 16:00N 52°32' E 004°33'4 4.5
2020-Jul-07 15:00N 52°28' E 004°35'3 3.5
2020-Jul-07 14:00N 52°27' E 004°41'6 6.2
2020-Jul-07 13:00N 52°25' E 004°51'5 3.6
2020-Jul-07 11:31N 52°23' E 004°58'2 4.6
2020-Jul-07 11:00N 52°23' E 005°02'18 5.2
2020-Jul-07 07:30N 52°39' E 005°15'3 1.6
2020-Jul-07 05:26N 52°42' E 005°18'0 0.0
2020-Jul-07 04:56N 52°42' E 005°18'0 0.0
2020-Jul-07 03:26N 52°42' E 005°18'0 0.0
2020-Jul-07 02:56N 52°42' E 005°18'0 0.0
2020-Jul-06 23:56N 52°42' E 005°18'0 0.0
2020-Jul-06 22:26N 52°42' E 005°18'0 0.0
2020-Jul-06 19:00N 52°42' E 005°18'0 0.0
2020-Jul-06 18:30N 52°42' E 005°18'3 3.2
2020-Jul-06 17:31N 52°44' E 005°22'3 5.7
2020-Jul-06 17:01N 52°46' E 005°21'21 4.2
2020-Jul-06 12:01N 52°59' E 004°54'  
2020-Jul-03 08:31N 52°58' E 004°47'0 0.3
2020-Jul-03 08:30N 52°58' E 004°47'10 4.9
2020-Jul-03 06:30N 52°56' E 005°03'5 2.0
2020-Jul-03 03:56N 52°52' E 005°08'0 0.0
2020-Jul-03 02:59N 52°52' E 005°08'0 0.0
2020-Jul-03 02:29N 52°52' E 005°08'0 0.0
2020-Jul-02 20:28N 52°52' E 005°08'0 0.0
2020-Jul-02 19:28N 52°52' E 005°08'0 0.0
2020-Jul-02 18:28N 52°52' E 005°08'1 0.4
2020-Jul-02 16:01N 52°51' E 005°09'2 1.5
2020-Jul-02 14:31N 52°51' E 005°13'4 1.5
2020-Jul-02 11:30N 52°55' E 005°16'2 3.3
2020-Jul-02 11:00N 52°55' E 005°19'2 4.1
2020-Jul-02 10:31N 52°57' E 005°20'4 4.2
2020-Jul-02 09:31N 53°01' E 005°20'1 2.8
2020-Jul-02 09:01N 53°02' E 005°21'9 3.7
2020-Jul-02 06:27N 53°11' E 005°25'0 0.0
2020-Jul-02 03:57N 53°11' E 005°25'0 0.0
2020-Jul-02 03:27N 53°11' E 005°25'0 0.0
2020-Jul-02 02:27N 53°11' E 005°25'0 0.0
2020-Jul-02 01:27N 53°11' E 005°25'0 0.0
2020-Jul-01 23:30N 53°11' E 005°25'0 0.0
2020-Jul-01 18:26N 53°11' E 005°25'7 2.8
2020-Jul-01 16:00N 53°05' E 005°19'18 6.8
2020-Jul-01 13:25N 53°01' E 004°51'35 4.4
2020-Jul-01 05:29N 52°28' E 004°34'0 0.0
2020-Jul-01 03:59N 52°28' E 004°34'0 0.0
2020-Jul-01 02:29N 52°28' E 004°34'0 0.0
2020-Jun-30 23:59N 52°28' E 004°34'0 0.0
2020-Jun-30 21:29N 52°28' E 004°34'0 0.0
2020-Jun-30 18:29N 52°28' E 004°34'0 0.0
2020-Jun-30 17:56N 52°28' E 004°34'0 0.0
2020-Jun-30 17:29N 52°28' E 004°34'1 1.2
2020-Jun-30 16:30N 52°28' E 004°36'5 5.0
2020-Jun-30 15:30N 52°26' E 004°43'5 5.2
2020-Jun-30 14:30N 52°25' E 004°52'10 3.8
2020-Jun-30 12:00N 52°25' E 005°07'16 3.6
2020-Jun-30 07:30N 52°40' E 005°15'2 2.4
2020-Jun-30 06:29N 52°42' E 005°18'0 0.0
2020-Jun-30 03:28N 52°42' E 005°18'0 0.0
2020-Jun-30 02:28N 52°42' E 005°18'0 0.0
2020-Jun-30 00:29N 52°42' E 005°18'0 0.0
2020-Jun-29 22:58N 52°42' E 005°18'0 0.0
2020-Jun-29 22:29N 52°42' E 005°18'0 0.0
2020-Jun-29 21:28N 52°42' E 005°18'4 0.8
2020-Jun-29 16:30N 52°45' E 005°20'1 1.7
2020-Jun-29 16:00N 52°45' E 005°21'2 1.0
2020-Jun-29 14:00N 52°47' E 005°20'4 8.5
2020-Jun-29 13:30N 52°49' E 005°14'  

Dump ship's entire track history